sensor_id;sensor_type;location;lat;lon;timestamp;P1;durP1;ratioP1;P2;durP2;ratioP2
22470;SDS011;11402;51.374;6.594;2023-03-01T00:00:38;13.48;;;8.68;;
22470;SDS011;11402;51.374;6.594;2023-03-01T00:03:03;15.85;;;8.70;;
22470;SDS011;11402;51.374;6.594;2023-03-01T00:05:29;16.00;;;8.40;;
22470;SDS011;11402;51.374;6.594;2023-03-01T00:07:55;15.23;;;8.30;;
22470;SDS011;11402;51.374;6.594;2023-03-01T00:10:20;13.45;;;8.43;;
22470;SDS011;11402;51.374;6.594;2023-03-01T00:12:46;12.65;;;8.02;;
22470;SDS011;11402;51.374;6.594;2023-03-01T00:15:11;14.77;;;8.95;;
22470;SDS011;11402;51.374;6.594;2023-03-01T00:17:37;13.32;;;8.52;;
22470;SDS011;11402;51.374;6.594;2023-03-01T00:20:03;13.45;;;8.13;;
22470;SDS011;11402;51.374;6.594;2023-03-01T00:22:32;11.60;;;8.23;;
22470;SDS011;11402;51.374;6.594;2023-03-01T00:24:58;12.68;;;8.85;;
22470;SDS011;11402;51.374;6.594;2023-03-01T00:27:24;13.57;;;8.70;;
22470;SDS011;11402;51.374;6.594;2023-03-01T00:29:49;15.05;;;8.88;;
22470;SDS011;11402;51.374;6.594;2023-03-01T00:32:15;15.88;;;8.93;;
22470;SDS011;11402;51.374;6.594;2023-03-01T00:34:40;13.10;;;8.55;;
22470;SDS011;11402;51.374;6.594;2023-03-01T00:37:06;13.88;;;8.73;;
22470;SDS011;11402;51.374;6.594;2023-03-01T00:39:31;15.02;;;9.35;;
22470;SDS011;11402;51.374;6.594;2023-03-01T00:41:58;14.55;;;9.05;;
22470;SDS011;11402;51.374;6.594;2023-03-01T00:44:23;14.27;;;8.82;;
22470;SDS011;11402;51.374;6.594;2023-03-01T00:46:49;16.55;;;9.32;;
22470;SDS011;11402;51.374;6.594;2023-03-01T00:49:14;14.77;;;9.60;;
22470;SDS011;11402;51.374;6.594;2023-03-01T00:51:40;15.88;;;9.15;;
22470;SDS011;11402;51.374;6.594;2023-03-01T00:54:09;14.95;;;9.73;;
22470;SDS011;11402;51.374;6.594;2023-03-01T00:56:34;13.88;;;8.90;;
22470;SDS011;11402;51.374;6.594;2023-03-01T00:59:00;14.02;;;8.98;;
22470;SDS011;11402;51.374;6.594;2023-03-01T01:01:27;15.20;;;9.13;;
22470;SDS011;11402;51.374;6.594;2023-03-01T01:06:29;13.73;;;8.90;;
22470;SDS011;11402;51.374;6.594;2023-03-01T01:08:56;17.40;;;9.05;;
22470;SDS011;11402;51.374;6.594;2023-03-01T01:11:23;12.82;;;8.82;;
22470;SDS011;11402;51.374;6.594;2023-03-01T01:13:50;14.75;;;9.00;;
22470;SDS011;11402;51.374;6.594;2023-03-01T01:16:17;14.52;;;8.93;;
22470;SDS011;11402;51.374;6.594;2023-03-01T01:18:44;21.83;;;9.68;;
22470;SDS011;11402;51.374;6.594;2023-03-01T01:21:11;16.35;;;9.27;;
22470;SDS011;11402;51.374;6.594;2023-03-01T01:23:39;14.77;;;9.73;;
22470;SDS011;11402;51.374;6.594;2023-03-01T01:26:22;15.80;;;9.30;;
22470;SDS011;11402;51.374;6.594;2023-03-01T01:28:49;12.88;;;8.82;;
22470;SDS011;11402;51.374;6.594;2023-03-01T01:31:16;16.98;;;9.35;;
22470;SDS011;11402;51.374;6.594;2023-03-01T01:33:42;15.15;;;8.82;;
22470;SDS011;11402;51.374;6.594;2023-03-01T01:36:08;17.02;;;8.43;;
22470;SDS011;11402;51.374;6.594;2023-03-01T01:38:34;14.40;;;8.80;;
22470;SDS011;11402;51.374;6.594;2023-03-01T01:41:01;15.13;;;9.07;;
22470;SDS011;11402;51.374;6.594;2023-03-01T01:43:31;15.50;;;8.80;;
22470;SDS011;11402;51.374;6.594;2023-03-01T01:46:01;16.95;;;8.60;;
22470;SDS011;11402;51.374;6.594;2023-03-01T01:48:39;15.60;;;9.05;;
22470;SDS011;11402;51.374;6.594;2023-03-01T01:51:13;16.38;;;9.32;;
22470;SDS011;11402;51.374;6.594;2023-03-01T01:53:43;13.27;;;9.02;;
22470;SDS011;11402;51.374;6.594;2023-03-01T01:56:11;19.52;;;9.32;;
22470;SDS011;11402;51.374;6.594;2023-03-01T01:58:40;13.43;;;9.00;;
22470;SDS011;11402;51.374;6.594;2023-03-01T02:01:07;12.88;;;9.38;;
22470;SDS011;11402;51.374;6.594;2023-03-01T02:03:33;14.77;;;9.05;;
22470;SDS011;11402;51.374;6.594;2023-03-01T02:06:06;14.73;;;8.98;;
22470;SDS011;11402;51.374;6.594;2023-03-01T02:08:46;18.00;;;9.73;;
22470;SDS011;11402;51.374;6.594;2023-03-01T02:11:13;16.33;;;9.73;;
22470;SDS011;11402;51.374;6.594;2023-03-01T02:13:40;15.98;;;9.05;;
22470;SDS011;11402;51.374;6.594;2023-03-01T02:16:11;14.63;;;9.55;;
22470;SDS011;11402;51.374;6.594;2023-03-01T02:18:39;14.50;;;9.70;;
22470;SDS011;11402;51.374;6.594;2023-03-01T02:23:55;15.65;;;9.23;;
22470;SDS011;11402;51.374;6.594;2023-03-01T02:29:15;15.02;;;9.40;;
22470;SDS011;11402;51.374;6.594;2023-03-01T02:31:40;16.08;;;9.40;;
22470;SDS011;11402;51.374;6.594;2023-03-01T02:34:06;18.67;;;10.27;;
22470;SDS011;11402;51.374;6.594;2023-03-01T02:36:38;15.13;;;10.48;;
22470;SDS011;11402;51.374;6.594;2023-03-01T02:39:28;13.43;;;9.38;;
22470;SDS011;11402;51.374;6.594;2023-03-01T02:41:59;17.42;;;10.10;;
22470;SDS011;11402;51.374;6.594;2023-03-01T02:44:26;16.63;;;9.82;;
22470;SDS011;11402;51.374;6.594;2023-03-01T02:46:52;16.45;;;9.30;;
22470;SDS011;11402;51.374;6.594;2023-03-01T02:52:07;12.48;;;8.82;;
22470;SDS011;11402;51.374;6.594;2023-03-01T02:57:13;13.60;;;9.52;;
22470;SDS011;11402;51.374;6.594;2023-03-01T02:59:39;13.95;;;9.25;;
22470;SDS011;11402;51.374;6.594;2023-03-01T03:02:08;14.13;;;9.45;;
22470;SDS011;11402;51.374;6.594;2023-03-01T03:05:01;17.88;;;9.55;;
22470;SDS011;11402;51.374;6.594;2023-03-01T03:07:33;13.23;;;9.35;;
22470;SDS011;11402;51.374;6.594;2023-03-01T03:10:00;14.77;;;9.60;;
22470;SDS011;11402;51.374;6.594;2023-03-01T03:12:26;19.13;;;9.77;;
22470;SDS011;11402;51.374;6.594;2023-03-01T03:14:51;14.88;;;9.75;;
22470;SDS011;11402;51.374;6.594;2023-03-01T03:17:17;15.32;;;9.60;;
22470;SDS011;11402;51.374;6.594;2023-03-01T03:19:43;16.85;;;9.75;;
22470;SDS011;11402;51.374;6.594;2023-03-01T03:22:10;16.98;;;10.23;;
22470;SDS011;11402;51.374;6.594;2023-03-01T03:24:36;15.93;;;10.30;;
22470;SDS011;11402;51.374;6.594;2023-03-01T03:27:02;14.57;;;10.23;;
22470;SDS011;11402;51.374;6.594;2023-03-01T03:29:28;14.77;;;10.15;;
22470;SDS011;11402;51.374;6.594;2023-03-01T03:31:54;16.42;;;10.63;;
22470;SDS011;11402;51.374;6.594;2023-03-01T03:34:19;16.17;;;9.75;;
22470;SDS011;11402;51.374;6.594;2023-03-01T03:36:45;16.33;;;9.93;;
22470;SDS011;11402;51.374;6.594;2023-03-01T03:39:10;19.67;;;10.20;;
22470;SDS011;11402;51.374;6.594;2023-03-01T03:41:36;16.33;;;9.77;;
22470;SDS011;11402;51.374;6.594;2023-03-01T03:44:02;19.33;;;10.00;;
22470;SDS011;11402;51.374;6.594;2023-03-01T03:46:27;16.80;;;10.05;;
22470;SDS011;11402;51.374;6.594;2023-03-01T03:48:53;16.83;;;10.65;;
22470;SDS011;11402;51.374;6.594;2023-03-01T03:51:18;17.40;;;9.93;;
22470;SDS011;11402;51.374;6.594;2023-03-01T03:53:44;18.42;;;10.30;;
22470;SDS011;11402;51.374;6.594;2023-03-01T03:56:10;15.82;;;10.02;;
22470;SDS011;11402;51.374;6.594;2023-03-01T03:58:36;14.63;;;10.27;;
22470;SDS011;11402;51.374;6.594;2023-03-01T04:01:02;18.75;;;10.65;;
22470;SDS011;11402;51.374;6.594;2023-03-01T04:03:29;17.52;;;10.18;;
22470;SDS011;11402;51.374;6.594;2023-03-01T04:05:57;18.83;;;10.77;;
22470;SDS011;11402;51.374;6.594;2023-03-01T04:08:23;18.90;;;10.88;;
22470;SDS011;11402;51.374;6.594;2023-03-01T04:10:50;15.32;;;10.68;;
22470;SDS011;11402;51.374;6.594;2023-03-01T04:13:18;19.45;;;10.48;;
22470;SDS011;11402;51.374;6.594;2023-03-01T04:15:46;19.15;;;10.77;;
22470;SDS011;11402;51.374;6.594;2023-03-01T04:18:14;17.33;;;10.23;;
22470;SDS011;11402;51.374;6.594;2023-03-01T04:20:41;15.07;;;10.20;;
22470;SDS011;11402;51.374;6.594;2023-03-01T04:23:10;15.55;;;9.93;;
22470;SDS011;11402;51.374;6.594;2023-03-01T04:28:19;17.15;;;9.75;;
22470;SDS011;11402;51.374;6.594;2023-03-01T04:30:45;19.23;;;10.95;;
22470;SDS011;11402;51.374;6.594;2023-03-01T04:33:11;17.35;;;10.48;;
22470;SDS011;11402;51.374;6.594;2023-03-01T04:35:37;18.65;;;10.52;;
22470;SDS011;11402;51.374;6.594;2023-03-01T04:38:04;19.90;;;10.75;;
22470;SDS011;11402;51.374;6.594;2023-03-01T04:40:30;20.70;;;11.38;;
22470;SDS011;11402;51.374;6.594;2023-03-01T04:42:56;19.15;;;10.75;;
22470;SDS011;11402;51.374;6.594;2023-03-01T04:45:22;15.90;;;11.05;;
22470;SDS011;11402;51.374;6.594;2023-03-01T04:47:48;14.98;;;10.25;;
22470;SDS011;11402;51.374;6.594;2023-03-01T04:50:15;18.02;;;11.60;;
22470;SDS011;11402;51.374;6.594;2023-03-01T04:52:42;17.95;;;11.25;;
22470;SDS011;11402;51.374;6.594;2023-03-01T04:55:08;17.77;;;11.25;;
22470;SDS011;11402;51.374;6.594;2023-03-01T04:57:35;20.75;;;11.05;;
22470;SDS011;11402;51.374;6.594;2023-03-01T05:00:00;19.75;;;10.77;;
22470;SDS011;11402;51.374;6.594;2023-03-01T05:02:26;17.40;;;10.82;;
22470;SDS011;11402;51.374;6.594;2023-03-01T05:04:51;18.45;;;11.00;;
22470;SDS011;11402;51.374;6.594;2023-03-01T05:07:17;19.00;;;10.80;;
22470;SDS011;11402;51.374;6.594;2023-03-01T05:09:47;15.25;;;10.45;;
22470;SDS011;11402;51.374;6.594;2023-03-01T05:12:13;19.38;;;11.48;;
22470;SDS011;11402;51.374;6.594;2023-03-01T05:14:40;18.45;;;11.05;;
22470;SDS011;11402;51.374;6.594;2023-03-01T05:17:06;21.85;;;11.10;;
22470;SDS011;11402;51.374;6.594;2023-03-01T05:19:33;16.63;;;11.07;;
22470;SDS011;11402;51.374;6.594;2023-03-01T05:21:59;17.65;;;10.70;;
22470;SDS011;11402;51.374;6.594;2023-03-01T05:24:31;20.00;;;11.32;;
22470;SDS011;11402;51.374;6.594;2023-03-01T05:26:59;19.48;;;10.80;;
22470;SDS011;11402;51.374;6.594;2023-03-01T05:29:26;16.27;;;10.48;;
22470;SDS011;11402;51.374;6.594;2023-03-01T05:31:53;19.38;;;10.82;;
22470;SDS011;11402;51.374;6.594;2023-03-01T05:34:28;18.90;;;10.95;;
22470;SDS011;11402;51.374;6.594;2023-03-01T05:36:55;17.25;;;10.68;;
22470;SDS011;11402;51.374;6.594;2023-03-01T05:39:21;17.95;;;11.20;;
22470;SDS011;11402;51.374;6.594;2023-03-01T05:41:48;18.13;;;10.63;;
22470;SDS011;11402;51.374;6.594;2023-03-01T05:44:17;18.33;;;10.77;;
22470;SDS011;11402;51.374;6.594;2023-03-01T05:46:43;20.75;;;11.15;;
22470;SDS011;11402;51.374;6.594;2023-03-01T05:49:09;17.58;;;11.63;;
22470;SDS011;11402;51.374;6.594;2023-03-01T05:51:35;17.45;;;10.88;;
22470;SDS011;11402;51.374;6.594;2023-03-01T05:54:01;18.35;;;10.27;;
22470;SDS011;11402;51.374;6.594;2023-03-01T05:56:27;18.05;;;11.05;;
22470;SDS011;11402;51.374;6.594;2023-03-01T05:58:52;16.38;;;10.60;;
22470;SDS011;11402;51.374;6.594;2023-03-01T06:01:18;17.58;;;10.98;;
22470;SDS011;11402;51.374;6.594;2023-03-01T06:03:43;17.95;;;11.20;;
22470;SDS011;11402;51.374;6.594;2023-03-01T06:06:09;18.75;;;11.40;;
22470;SDS011;11402;51.374;6.594;2023-03-01T06:08:34;24.45;;;10.82;;
22470;SDS011;11402;51.374;6.594;2023-03-01T06:11:00;23.80;;;11.25;;
22470;SDS011;11402;51.374;6.594;2023-03-01T06:13:26;17.52;;;11.48;;
22470;SDS011;11402;51.374;6.594;2023-03-01T06:15:51;21.65;;;13.55;;
22470;SDS011;11402;51.374;6.594;2023-03-01T06:18:17;21.73;;;13.82;;
22470;SDS011;11402;51.374;6.594;2023-03-01T06:20:42;22.58;;;13.82;;
22470;SDS011;11402;51.374;6.594;2023-03-01T06:23:08;19.60;;;12.75;;
22470;SDS011;11402;51.374;6.594;2023-03-01T06:25:34;22.20;;;12.23;;
22470;SDS011;11402;51.374;6.594;2023-03-01T06:27:59;28.60;;;15.80;;
22470;SDS011;11402;51.374;6.594;2023-03-01T06:30:25;25.52;;;13.50;;
22470;SDS011;11402;51.374;6.594;2023-03-01T06:32:51;22.90;;;13.95;;
22470;SDS011;11402;51.374;6.594;2023-03-01T06:35:18;21.73;;;11.43;;
22470;SDS011;11402;51.374;6.594;2023-03-01T06:37:44;19.45;;;12.18;;
22470;SDS011;11402;51.374;6.594;2023-03-01T06:40:11;20.35;;;12.55;;
22470;SDS011;11402;51.374;6.594;2023-03-01T06:42:39;19.92;;;12.27;;
22470;SDS011;11402;51.374;6.594;2023-03-01T06:45:07;24.65;;;13.27;;
22470;SDS011;11402;51.374;6.594;2023-03-01T06:47:34;27.83;;;12.68;;
22470;SDS011;11402;51.374;6.594;2023-03-01T06:50:00;21.63;;;12.70;;
22470;SDS011;11402;51.374;6.594;2023-03-01T06:52:26;21.75;;;11.93;;
22470;SDS011;11402;51.374;6.594;2023-03-01T06:54:52;20.55;;;12.20;;
22470;SDS011;11402;51.374;6.594;2023-03-01T06:57:17;23.30;;;12.63;;
22470;SDS011;11402;51.374;6.594;2023-03-01T06:59:43;17.08;;;11.60;;
22470;SDS011;11402;51.374;6.594;2023-03-01T07:02:12;21.17;;;12.63;;
22470;SDS011;11402;51.374;6.594;2023-03-01T07:04:39;20.85;;;13.18;;
22470;SDS011;11402;51.374;6.594;2023-03-01T07:07:05;21.65;;;12.50;;
22470;SDS011;11402;51.374;6.594;2023-03-01T07:09:31;19.00;;;11.43;;
22470;SDS011;11402;51.374;6.594;2023-03-01T07:11:57;20.65;;;11.60;;
22470;SDS011;11402;51.374;6.594;2023-03-01T07:14:23;19.15;;;11.70;;
22470;SDS011;11402;51.374;6.594;2023-03-01T07:16:54;33.20;;;13.35;;
22470;SDS011;11402;51.374;6.594;2023-03-01T07:19:20;18.73;;;12.23;;
22470;SDS011;11402;51.374;6.594;2023-03-01T07:21:46;17.05;;;11.55;;
22470;SDS011;11402;51.374;6.594;2023-03-01T07:24:12;20.65;;;12.43;;
22470;SDS011;11402;51.374;6.594;2023-03-01T07:26:38;21.27;;;11.52;;
22470;SDS011;11402;51.374;6.594;2023-03-01T07:29:04;18.30;;;12.25;;
22470;SDS011;11402;51.374;6.594;2023-03-01T07:31:30;23.88;;;12.07;;
22470;SDS011;11402;51.374;6.594;2023-03-01T07:33:56;22.00;;;12.80;;
22470;SDS011;11402;51.374;6.594;2023-03-01T07:36:22;20.42;;;12.13;;
22470;SDS011;11402;51.374;6.594;2023-03-01T07:38:48;20.98;;;11.75;;
22470;SDS011;11402;51.374;6.594;2023-03-01T07:41:14;18.10;;;11.35;;
22470;SDS011;11402;51.374;6.594;2023-03-01T07:43:39;19.67;;;11.48;;
22470;SDS011;11402;51.374;6.594;2023-03-01T07:46:05;22.40;;;11.48;;
22470;SDS011;11402;51.374;6.594;2023-03-01T07:48:32;20.65;;;12.60;;
22470;SDS011;11402;51.374;6.594;2023-03-01T07:50:59;19.58;;;12.80;;
22470;SDS011;11402;51.374;6.594;2023-03-01T07:53:25;20.50;;;12.10;;
22470;SDS011;11402;51.374;6.594;2023-03-01T07:55:59;23.23;;;11.20;;
22470;SDS011;11402;51.374;6.594;2023-03-01T07:58:26;19.15;;;11.30;;
22470;SDS011;11402;51.374;6.594;2023-03-01T08:00:52;18.88;;;11.45;;
22470;SDS011;11402;51.374;6.594;2023-03-01T08:03:17;21.92;;;12.15;;
22470;SDS011;11402;51.374;6.594;2023-03-01T08:05:43;21.92;;;11.98;;
22470;SDS011;11402;51.374;6.594;2023-03-01T08:08:08;22.83;;;11.85;;
22470;SDS011;11402;51.374;6.594;2023-03-01T08:10:35;20.58;;;11.13;;
22470;SDS011;11402;51.374;6.594;2023-03-01T08:13:01;16.67;;;10.93;;
22470;SDS011;11402;51.374;6.594;2023-03-01T08:15:27;16.17;;;9.15;;
22470;SDS011;11402;51.374;6.594;2023-03-01T08:17:52;15.52;;;11.18;;
22470;SDS011;11402;51.374;6.594;2023-03-01T08:20:18;19.08;;;11.70;;
22470;SDS011;11402;51.374;6.594;2023-03-01T08:22:43;18.90;;;11.00;;
22470;SDS011;11402;51.374;6.594;2023-03-01T08:25:09;20.35;;;11.35;;
22470;SDS011;11402;51.374;6.594;2023-03-01T08:27:34;19.35;;;12.25;;
22470;SDS011;11402;51.374;6.594;2023-03-01T08:30:00;21.00;;;11.90;;
22470;SDS011;11402;51.374;6.594;2023-03-01T08:32:26;21.45;;;11.57;;
22470;SDS011;11402;51.374;6.594;2023-03-01T08:34:52;17.02;;;10.65;;
22470;SDS011;11402;51.374;6.594;2023-03-01T08:37:18;20.35;;;11.25;;
22470;SDS011;11402;51.374;6.594;2023-03-01T08:39:43;14.73;;;8.57;;
22470;SDS011;11402;51.374;6.594;2023-03-01T08:42:09;20.52;;;11.10;;
22470;SDS011;11402;51.374;6.594;2023-03-01T08:44:34;16.20;;;10.82;;
22470;SDS011;11402;51.374;6.594;2023-03-01T08:47:00;17.70;;;10.52;;
22470;SDS011;11402;51.374;6.594;2023-03-01T08:49:27;18.33;;;11.25;;
22470;SDS011;11402;51.374;6.594;2023-03-01T08:51:52;17.50;;;9.90;;
22470;SDS011;11402;51.374;6.594;2023-03-01T08:54:19;13.95;;;9.75;;
22470;SDS011;11402;51.374;6.594;2023-03-01T08:56:46;15.85;;;10.70;;
22470;SDS011;11402;51.374;6.594;2023-03-01T08:59:12;20.77;;;10.70;;
22470;SDS011;11402;51.374;6.594;2023-03-01T09:01:39;35.80;;;18.65;;
22470;SDS011;11402;51.374;6.594;2023-03-01T09:04:08;23.50;;;13.35;;
22470;SDS011;11402;51.374;6.594;2023-03-01T09:06:34;17.30;;;10.70;;
22470;SDS011;11402;51.374;6.594;2023-03-01T09:09:00;15.50;;;10.13;;
22470;SDS011;11402;51.374;6.594;2023-03-01T09:11:27;21.60;;;11.25;;
22470;SDS011;11402;51.374;6.594;2023-03-01T09:13:53;17.15;;;10.60;;
22470;SDS011;11402;51.374;6.594;2023-03-01T09:16:20;15.20;;;10.45;;
22470;SDS011;11402;51.374;6.594;2023-03-01T09:18:51;21.13;;;11.68;;
22470;SDS011;11402;51.374;6.594;2023-03-01T09:21:19;16.80;;;11.30;;
22470;SDS011;11402;51.374;6.594;2023-03-01T09:23:47;21.58;;;12.48;;
22470;SDS011;11402;51.374;6.594;2023-03-01T09:26:18;17.98;;;11.45;;
22470;SDS011;11402;51.374;6.594;2023-03-01T09:28:46;11.07;;;7.68;;
22470;SDS011;11402;51.374;6.594;2023-03-01T09:31:12;16.92;;;11.13;;
22470;SDS011;11402;51.374;6.594;2023-03-01T09:33:40;16.42;;;10.38;;
22470;SDS011;11402;51.374;6.594;2023-03-01T09:36:11;16.35;;;10.30;;
22470;SDS011;11402;51.374;6.594;2023-03-01T09:38:38;16.73;;;10.93;;
22470;SDS011;11402;51.374;6.594;2023-03-01T09:41:11;19.05;;;11.48;;
22470;SDS011;11402;51.374;6.594;2023-03-01T09:43:53;19.90;;;12.98;;
22470;SDS011;11402;51.374;6.594;2023-03-01T09:46:25;18.40;;;12.05;;
22470;SDS011;11402;51.374;6.594;2023-03-01T09:48:55;20.83;;;10.38;;
22470;SDS011;11402;51.374;6.594;2023-03-01T09:51:29;17.77;;;10.80;;
22470;SDS011;11402;51.374;6.594;2023-03-01T09:53:57;16.77;;;10.77;;
22470;SDS011;11402;51.374;6.594;2023-03-01T10:01:53;18.20;;;10.88;;
22470;SDS011;11402;51.374;6.594;2023-03-01T10:04:46;18.55;;;8.75;;
22470;SDS011;11402;51.374;6.594;2023-03-01T10:07:21;17.13;;;10.48;;
22470;SDS011;11402;51.374;6.594;2023-03-01T10:09:57;16.98;;;10.38;;
22470;SDS011;11402;51.374;6.594;2023-03-01T10:12:26;15.07;;;9.50;;
22470;SDS011;11402;51.374;6.594;2023-03-01T10:15:06;16.77;;;10.02;;
22470;SDS011;11402;51.374;6.594;2023-03-01T10:17:48;16.65;;;9.55;;
22470;SDS011;11402;51.374;6.594;2023-03-01T10:21:00;16.73;;;10.25;;
22470;SDS011;11402;51.374;6.594;2023-03-01T10:23:22;17.65;;;10.40;;
22470;SDS011;11402;51.374;6.594;2023-03-01T10:31:18;16.55;;;10.05;;
22470;SDS011;11402;51.374;6.594;2023-03-01T10:33:47;16.13;;;10.90;;
22470;SDS011;11402;51.374;6.594;2023-03-01T10:36:16;14.30;;;9.52;;
22470;SDS011;11402;51.374;6.594;2023-03-01T10:38:49;16.55;;;9.43;;
22470;SDS011;11402;51.374;6.594;2023-03-01T10:41:20;16.60;;;10.15;;
22470;SDS011;11402;51.374;6.594;2023-03-01T10:43:51;15.45;;;9.50;;
22470;SDS011;11402;51.374;6.594;2023-03-01T10:51:40;15.73;;;8.93;;
22470;SDS011;11402;51.374;6.594;2023-03-01T10:54:15;16.08;;;9.32;;
22470;SDS011;11402;51.374;6.594;2023-03-01T10:56:50;13.27;;;8.32;;
22470;SDS011;11402;51.374;6.594;2023-03-01T10:59:26;12.13;;;8.27;;
22470;SDS011;11402;51.374;6.594;2023-03-01T11:02:18;12.95;;;8.68;;
22470;SDS011;11402;51.374;6.594;2023-03-01T11:07:49;12.60;;;7.88;;
22470;SDS011;11402;51.374;6.594;2023-03-01T11:10:28;14.68;;;8.65;;
22470;SDS011;11402;51.374;6.594;2023-03-01T11:13:13;14.23;;;8.60;;
22470;SDS011;11402;51.374;6.594;2023-03-01T11:15:41;16.30;;;8.40;;
22470;SDS011;11402;51.374;6.594;2023-03-01T11:18:22;15.48;;;9.15;;
22470;SDS011;11402;51.374;6.594;2023-03-01T11:20:49;11.95;;;8.05;;
22470;SDS011;11402;51.374;6.594;2023-03-01T11:23:18;13.35;;;8.00;;
22470;SDS011;11402;51.374;6.594;2023-03-01T11:25:49;12.32;;;8.20;;
22470;SDS011;11402;51.374;6.594;2023-03-01T11:28:23;13.68;;;8.32;;
22470;SDS011;11402;51.374;6.594;2023-03-01T11:31:00;12.95;;;8.13;;
22470;SDS011;11402;51.374;6.594;2023-03-01T11:33:41;13.68;;;8.70;;
22470;SDS011;11402;51.374;6.594;2023-03-01T11:39:17;14.55;;;7.72;;
22470;SDS011;11402;51.374;6.594;2023-03-01T11:42:06;15.25;;;8.35;;
22470;SDS011;11402;51.374;6.594;2023-03-01T11:44:44;10.88;;;5.47;;
22470;SDS011;11402;51.374;6.594;2023-03-01T11:52:48;10.43;;;6.63;;
22470;SDS011;11402;51.374;6.594;2023-03-01T11:55:36;16.38;;;7.90;;
22470;SDS011;11402;51.374;6.594;2023-03-01T11:58:14;10.60;;;7.57;;
22470;SDS011;11402;51.374;6.594;2023-03-01T12:11:18;12.75;;;7.60;;
22470;SDS011;11402;51.374;6.594;2023-03-01T12:25:45;10.32;;;6.72;;
22470;SDS011;11402;51.374;6.594;2023-03-01T12:28:18;9.35;;;6.38;;
22470;SDS011;11402;51.374;6.594;2023-03-01T12:33:45;12.02;;;6.32;;
22470;SDS011;11402;51.374;6.594;2023-03-01T12:51:04;11.10;;;6.68;;
22470;SDS011;11402;51.374;6.594;2023-03-01T12:56:44;11.65;;;6.28;;
22470;SDS011;11402;51.374;6.594;2023-03-01T13:02:13;10.82;;;7.20;;
22470;SDS011;11402;51.374;6.594;2023-03-01T13:07:50;9.68;;;6.25;;
22470;SDS011;11402;51.374;6.594;2023-03-01T13:13:28;11.23;;;6.70;;
22470;SDS011;11402;51.374;6.594;2023-03-01T13:15:55;7.82;;;4.85;;
22470;SDS011;11402;51.374;6.594;2023-03-01T13:20:49;12.15;;;7.00;;
22470;SDS011;11402;51.374;6.594;2023-03-01T13:28:40;11.63;;;6.65;;
22470;SDS011;11402;51.374;6.594;2023-03-01T13:31:07;10.77;;;6.55;;
22470;SDS011;11402;51.374;6.594;2023-03-01T13:33:47;14.95;;;7.28;;
22470;SDS011;11402;51.374;6.594;2023-03-01T13:46:52;12.05;;;6.88;;
22470;SDS011;11402;51.374;6.594;2023-03-01T13:49:21;9.13;;;5.32;;
22470;SDS011;11402;51.374;6.594;2023-03-01T13:51:50;9.38;;;6.45;;
22470;SDS011;11402;51.374;6.594;2023-03-01T13:54:20;8.48;;;5.88;;
22470;SDS011;11402;51.374;6.594;2023-03-01T13:56:56;11.40;;;5.95;;
22470;SDS011;11402;51.374;6.594;2023-03-01T14:02:45;9.55;;;6.18;;
22470;SDS011;11402;51.374;6.594;2023-03-01T14:05:23;11.98;;;6.10;;
22470;SDS011;11402;51.374;6.594;2023-03-01T14:07:50;10.45;;;5.03;;
22470;SDS011;11402;51.374;6.594;2023-03-01T14:10:16;13.63;;;6.72;;
22470;SDS011;11402;51.374;6.594;2023-03-01T14:12:50;10.90;;;6.53;;
22470;SDS011;11402;51.374;6.594;2023-03-01T14:15:31;9.63;;;6.38;;
22470;SDS011;11402;51.374;6.594;2023-03-01T14:18:12;9.82;;;6.47;;
22470;SDS011;11402;51.374;6.594;2023-03-01T14:20:54;9.25;;;6.35;;
22470;SDS011;11402;51.374;6.594;2023-03-01T14:23:21;14.85;;;6.68;;
22470;SDS011;11402;51.374;6.594;2023-03-01T14:25:49;7.95;;;5.43;;
22470;SDS011;11402;51.374;6.594;2023-03-01T14:28:21;10.75;;;5.88;;
22470;SDS011;11402;51.374;6.594;2023-03-01T14:30:52;13.82;;;6.57;;
22470;SDS011;11402;51.374;6.594;2023-03-01T14:33:21;11.05;;;6.22;;
22470;SDS011;11402;51.374;6.594;2023-03-01T14:35:56;12.10;;;6.88;;
22470;SDS011;11402;51.374;6.594;2023-03-01T14:38:31;9.48;;;6.35;;
22470;SDS011;11402;51.374;6.594;2023-03-01T14:41:06;13.98;;;6.78;;
22470;SDS011;11402;51.374;6.594;2023-03-01T14:43:49;11.95;;;6.78;;
22470;SDS011;11402;51.374;6.594;2023-03-01T14:46:18;14.00;;;9.15;;
22470;SDS011;11402;51.374;6.594;2023-03-01T14:49:15;15.40;;;7.80;;
22470;SDS011;11402;51.374;6.594;2023-03-01T14:52:00;15.07;;;8.32;;
22470;SDS011;11402;51.374;6.594;2023-03-01T14:54:35;11.68;;;6.85;;
22470;SDS011;11402;51.374;6.594;2023-03-01T14:57:24;11.77;;;7.38;;
22470;SDS011;11402;51.374;6.594;2023-03-01T14:59:51;12.55;;;7.28;;
22470;SDS011;11402;51.374;6.594;2023-03-01T15:02:24;14.77;;;6.65;;
22470;SDS011;11402;51.374;6.594;2023-03-01T15:04:57;14.10;;;7.55;;
22470;SDS011;11402;51.374;6.594;2023-03-01T15:07:30;13.20;;;7.03;;
22470;SDS011;11402;51.374;6.594;2023-03-01T15:09:58;10.93;;;6.97;;
22470;SDS011;11402;51.374;6.594;2023-03-01T15:14:53;9.93;;;6.72;;
22470;SDS011;11402;51.374;6.594;2023-03-01T15:17:22;11.63;;;7.53;;
22470;SDS011;11402;51.374;6.594;2023-03-01T15:20:02;9.45;;;6.13;;
22470;SDS011;11402;51.374;6.594;2023-03-01T15:22:43;13.20;;;7.18;;
22470;SDS011;11402;51.374;6.594;2023-03-01T15:25:19;14.85;;;7.97;;
22470;SDS011;11402;51.374;6.594;2023-03-01T15:27:56;14.73;;;7.68;;
22470;SDS011;11402;51.374;6.594;2023-03-01T15:33:16;11.55;;;7.47;;
22470;SDS011;11402;51.374;6.594;2023-03-01T15:35:48;14.05;;;8.18;;
22470;SDS011;11402;51.374;6.594;2023-03-01T15:38:29;17.83;;;11.93;;
22470;SDS011;11402;51.374;6.594;2023-03-01T15:41:04;19.63;;;12.07;;
22470;SDS011;11402;51.374;6.594;2023-03-01T15:43:46;14.52;;;9.02;;
22470;SDS011;11402;51.374;6.594;2023-03-01T15:46:28;12.68;;;8.10;;
22470;SDS011;11402;51.374;6.594;2023-03-01T15:49:01;12.65;;;8.05;;
22470;SDS011;11402;51.374;6.594;2023-03-01T15:54:03;14.73;;;8.27;;
22470;SDS011;11402;51.374;6.594;2023-03-01T15:56:47;15.25;;;7.95;;
22470;SDS011;11402;51.374;6.594;2023-03-01T15:59:13;12.65;;;7.72;;
22470;SDS011;11402;51.374;6.594;2023-03-01T16:01:39;13.20;;;8.00;;
22470;SDS011;11402;51.374;6.594;2023-03-01T16:04:05;13.18;;;7.05;;
22470;SDS011;11402;51.374;6.594;2023-03-01T16:06:31;10.60;;;6.80;;
22470;SDS011;11402;51.374;6.594;2023-03-01T16:08:56;13.98;;;7.15;;
22470;SDS011;11402;51.374;6.594;2023-03-01T16:11:22;16.75;;;7.68;;
22470;SDS011;11402;51.374;6.594;2023-03-01T16:13:48;12.98;;;7.18;;
22470;SDS011;11402;51.374;6.594;2023-03-01T16:16:15;11.07;;;6.93;;
22470;SDS011;11402;51.374;6.594;2023-03-01T16:18:42;14.02;;;6.80;;
22470;SDS011;11402;51.374;6.594;2023-03-01T16:21:13;12.82;;;7.05;;
22470;SDS011;11402;51.374;6.594;2023-03-01T16:23:40;10.63;;;6.85;;
22470;SDS011;11402;51.374;6.594;2023-03-01T16:26:07;13.65;;;6.90;;
22470;SDS011;11402;51.374;6.594;2023-03-01T16:28:33;12.00;;;7.47;;
22470;SDS011;11402;51.374;6.594;2023-03-01T16:30:58;10.82;;;6.90;;
22470;SDS011;11402;51.374;6.594;2023-03-01T16:33:26;11.75;;;7.20;;
22470;SDS011;11402;51.374;6.594;2023-03-01T16:35:51;10.98;;;6.88;;
22470;SDS011;11402;51.374;6.594;2023-03-01T16:38:17;9.93;;;7.28;;
22470;SDS011;11402;51.374;6.594;2023-03-01T16:40:46;11.32;;;7.57;;
22470;SDS011;11402;51.374;6.594;2023-03-01T16:43:13;12.07;;;6.90;;
22470;SDS011;11402;51.374;6.594;2023-03-01T16:45:39;11.95;;;6.97;;